createdAt,value
2022-08-08T00:02:04.007Z,14.03
2022-08-08T00:04:48.953Z,14.19
2022-08-08T00:07:37.911Z,14.26
2022-08-08T00:10:29.961Z,14.38
2022-08-08T00:14:17.442Z,14.43
2022-08-08T00:16:51.442Z,14.39
2022-08-08T00:19:35.308Z,14.32
2022-08-08T00:22:11.105Z,14.28
2022-08-08T00:24:45.914Z,14.24
2022-08-08T00:27:19.940Z,14.24
2022-08-08T00:30:03.712Z,14.34
2022-08-08T00:32:46.292Z,14.31
2022-08-08T00:35:51.778Z,14.36
2022-08-08T00:39:00.964Z,14.23
2022-08-08T00:42:31.430Z,13.94
2022-08-08T00:45:45.559Z,13.75
2022-08-08T00:48:59.267Z,13.43
2022-08-08T00:52:19.912Z,13.34
2022-08-08T00:54:56.026Z,13.44
2022-08-08T00:57:43.727Z,13.39
2022-08-08T01:00:19.572Z,13.24
2022-08-08T01:04:01.492Z,13.17
2022-08-08T01:06:33.404Z,12.77
2022-08-08T01:09:41.684Z,12.84
2022-08-08T01:12:47.253Z,13.17
2022-08-08T01:15:54.957Z,13.29
2022-08-08T01:18:54.130Z,13.17
2022-08-08T01:22:12.577Z,13.23
2022-08-08T01:24:56.234Z,13.38
2022-08-08T01:28:02.120Z,13.39
2022-08-08T01:30:53.802Z,13.46
2022-08-08T01:33:42.793Z,13.32
2022-08-08T01:36:50.985Z,13.21
2022-08-08T01:39:35.003Z,13.13
2022-08-08T01:42:21.520Z,12.83
2022-08-08T01:45:41.936Z,12.94
2022-08-08T01:48:48.474Z,12.71
2022-08-08T01:52:00.937Z,12.87
2022-08-08T01:55:27.165Z,12.96
2022-08-08T01:58:13.081Z,13.04
2022-08-08T02:01:00.545Z,13.09
2022-08-08T02:04:24.503Z,13.22
2022-08-08T02:07:49.631Z,13.26
2022-08-08T02:10:46.116Z,12.90
2022-08-08T02:13:54.834Z,12.82
2022-08-08T02:16:08.617Z,12.99
2022-08-08T02:19:26.610Z,12.84
2022-08-08T02:22:32.291Z,12.26
2022-08-08T02:25:23.408Z,12.36
2022-08-08T02:28:05.626Z,12.02
2022-08-08T02:31:43.574Z,11.85
2022-08-08T02:34:36.111Z,12.16
2022-08-08T02:37:52.875Z,12.44
2022-08-08T02:40:50.133Z,12.64
2022-08-08T02:44:38.946Z,12.34
2022-08-08T02:46:54.597Z,12.43
2022-08-08T02:49:47.871Z,12.58
2022-08-08T02:52:38.326Z,12.36
2022-08-08T02:56:01.708Z,12.10
2022-08-08T02:58:59.490Z,12.46
2022-08-08T03:01:53.055Z,12.13
2022-08-08T03:05:02.558Z,12.18
2022-08-08T03:08:12.965Z,12.25
2022-08-08T03:11:25.978Z,12.13
2022-08-08T03:16:02.084Z,12.16
2022-08-08T03:17:59.630Z,12.28
2022-08-08T03:20:54.481Z,12.44
2022-08-08T03:23:56.498Z,12.15
2022-08-08T03:26:30.669Z,11.97
2022-08-08T03:29:03.283Z,12.31
2022-08-08T03:32:05.828Z,12.08
2022-08-08T03:34:41.518Z,11.86
2022-08-08T03:37:20.166Z,12.05
2022-08-08T03:40:06.355Z,12.28
2022-08-08T03:42:39.470Z,12.07
2022-08-08T03:46:02.969Z,11.75
2022-08-08T03:48:21.348Z,11.60
2022-08-08T03:50:58.250Z,11.96
2022-08-08T03:53:42.654Z,12.12
2022-08-08T03:56:32.228Z,12.29
2022-08-08T03:59:02.716Z,12.40
2022-08-08T04:02:31.670Z,12.33
2022-08-08T04:04:47.144Z,12.49
2022-08-08T04:07:39.274Z,12.57
2022-08-08T04:10:10.461Z,12.65
2022-08-08T04:12:39.592Z,12.61
2022-08-08T04:15:17.903Z,12.36
2022-08-08T04:18:07.042Z,12.30
2022-08-08T04:20:43.678Z,12.19
2022-08-08T04:23:22.694Z,12.37
2022-08-08T04:25:50.009Z,12.62
2022-08-08T04:28:37.115Z,12.51
2022-08-08T04:31:10.238Z,12.65
2022-08-08T04:34:00.291Z,12.76
2022-08-08T04:36:31.139Z,12.90
2022-08-08T04:39:47.809Z,12.82
2022-08-08T04:41:50.612Z,12.69
2022-08-08T04:44:18.779Z,12.81
2022-08-08T04:46:48.135Z,12.88
2022-08-08T04:49:28.702Z,12.89
2022-08-08T04:52:15.628Z,12.86
2022-08-08T04:54:45.966Z,12.94
2022-08-08T04:57:18.948Z,12.99
2022-08-08T04:59:52.519Z,13.16
2022-08-08T05:02:30.754Z,13.33
2022-08-08T05:05:06.243Z,13.55
2022-08-08T05:07:46.473Z,13.67
2022-08-08T05:10:18.010Z,13.76
2022-08-08T05:13:00.159Z,13.87
2022-08-08T05:16:47.886Z,14.03
2022-08-08T05:18:24.456Z,14.09
2022-08-08T05:20:58.700Z,14.23
2022-08-08T05:24:04.404Z,14.31
2022-08-08T05:26:46.947Z,14.41
2022-08-08T05:29:17.090Z,14.52
2022-08-08T05:32:03.444Z,14.56
2022-08-08T05:34:51.541Z,14.61
2022-08-08T05:37:48.997Z,14.66
2022-08-08T05:40:29.024Z,14.72
2022-08-08T05:43:38.162Z,14.81
2022-08-08T05:46:08.248Z,14.94
2022-08-08T05:48:42.502Z,15.03
2022-08-08T05:51:13.550Z,15.18
2022-08-08T05:54:27.238Z,15.32
2022-08-08T05:57:04.672Z,15.53
2022-08-08T06:00:00.731Z,15.64
2022-08-08T06:02:48.163Z,15.84
2022-08-08T06:05:33.822Z,15.95
2022-08-08T06:08:09.327Z,16.12
2022-08-08T06:10:46.504Z,16.36
2022-08-08T06:13:15.907Z,16.52
2022-08-08T06:15:53.578Z,16.61
2022-08-08T06:18:28.289Z,16.74
2022-08-08T06:21:28.198Z,16.89
2022-08-08T06:24:03.753Z,17.01
2022-08-08T06:27:10.323Z,17.14
2022-08-08T06:30:00.263Z,17.22
2022-08-08T06:33:09.327Z,17.34
2022-08-08T06:36:08.244Z,17.47
2022-08-08T06:38:47.156Z,17.53
2022-08-08T06:41:33.127Z,17.72
2022-08-08T06:44:24.929Z,17.80
2022-08-08T06:47:00.089Z,17.87
2022-08-08T06:49:56.687Z,17.99
2022-08-08T06:52:21.349Z,18.15
2022-08-08T06:54:59.527Z,18.27
2022-08-08T06:57:44.296Z,18.39
2022-08-08T07:00:30.088Z,18.63
2022-08-08T07:03:09.097Z,18.76
2022-08-08T07:06:01.644Z,19.03
2022-08-08T07:08:39.582Z,19.15
2022-08-08T07:11:57.339Z,19.30
2022-08-08T07:14:31.054Z,19.26
2022-08-08T07:18:02.051Z,19.32
2022-08-08T07:20:50.473Z,19.61
2022-08-08T07:24:01.199Z,19.82
2022-08-08T07:26:35.510Z,19.93
2022-08-08T07:29:08.175Z,20.04
2022-08-08T07:31:48.284Z,20.21
2022-08-08T07:34:26.879Z,20.41
2022-08-08T07:37:13.503Z,20.39
2022-08-08T07:39:57.777Z,20.35
2022-08-08T07:42:34.353Z,20.44
2022-08-08T07:45:01.964Z,20.41
2022-08-08T07:47:39.215Z,20.43
2022-08-08T07:50:26.461Z,20.44
2022-08-08T07:53:00.889Z,20.65
2022-08-08T07:55:36.449Z,20.85
2022-08-08T07:58:30.587Z,20.99
2022-08-08T08:01:08.369Z,21.08
2022-08-08T08:04:03.113Z,21.16
2022-08-08T08:06:38.497Z,21.28
2022-08-08T08:09:24.204Z,21.33
2022-08-08T08:12:35.632Z,21.50
2022-08-08T08:15:18.893Z,21.72
2022-08-08T08:18:14.175Z,21.96
2022-08-08T08:20:42.574Z,22.09
2022-08-08T08:23:09.586Z,22.15
2022-08-08T08:25:42.333Z,22.38
2022-08-08T08:28:23.941Z,22.51
2022-08-08T08:30:55.256Z,22.59
2022-08-08T08:33:27.318Z,22.70
2022-08-08T08:36:21.976Z,22.80
2022-08-08T08:38:54.716Z,22.92
2022-08-08T08:41:24.983Z,23.01
2022-08-08T08:44:14.109Z,23.16
2022-08-08T08:46:58.910Z,23.33
2022-08-08T08:49:38.468Z,23.44
2022-08-08T08:52:14.788Z,23.38
2022-08-08T08:54:55.871Z,23.54
2022-08-08T08:57:41.895Z,23.78
2022-08-08T09:00:17.126Z,23.91
2022-08-08T09:02:49.870Z,23.94
2022-08-08T09:05:48.909Z,24.01
2022-08-08T09:08:18.427Z,24.34
2022-08-08T09:10:52.479Z,24.51
2022-08-08T09:13:38.686Z,24.70
2022-08-08T09:16:09.429Z,24.89
2022-08-08T09:18:45.061Z,25.16
2022-08-08T09:21:57.372Z,25.35
2022-08-08T09:24:40.726Z,25.46
2022-08-08T09:27:20.086Z,25.56
2022-08-08T09:29:59.193Z,25.69
2022-08-08T09:32:38.134Z,25.93
2022-08-08T09:35:32.243Z,25.97
2022-08-08T09:38:09.421Z,26.02
2022-08-08T09:40:55.690Z,26.11
2022-08-08T09:43:40.790Z,26.10
2022-08-08T09:46:25.570Z,26.13
2022-08-08T09:49:04.388Z,26.41
2022-08-08T09:52:07.440Z,26.71
2022-08-08T09:54:44.102Z,26.96
2022-08-08T09:57:45.776Z,27.19
2022-08-08T10:03:19.950Z,27.52
2022-08-08T10:05:59.972Z,27.67
2022-08-08T10:08:47.545Z,27.68
2022-08-08T10:12:23.213Z,27.58
2022-08-08T10:14:28.112Z,27.62
2022-08-08T10:17:56.526Z,27.92
2022-08-08T10:20:10.453Z,27.99
2022-08-08T10:23:42.167Z,28.16
2022-08-08T10:26:57.454Z,28.39
2022-08-08T10:29:59.980Z,28.72
2022-08-08T10:32:48.467Z,29.04
2022-08-08T10:36:20.417Z,29.36
2022-08-08T10:38:35.151Z,29.61
2022-08-08T10:41:17.504Z,29.78
2022-08-08T10:43:52.100Z,29.90
2022-08-08T10:46:31.483Z,30.04
2022-08-08T10:49:00.587Z,29.83
2022-08-08T10:51:50.813Z,29.70
2022-08-08T10:54:25.238Z,29.32
2022-08-08T10:57:03.686Z,29.06
2022-08-08T10:59:39.669Z,29.00
2022-08-08T11:02:09.614Z,29.41
2022-08-08T11:04:53.226Z,29.92
2022-08-08T11:08:24.398Z,29.75
2022-08-08T11:10:39.399Z,30.03
2022-08-08T11:13:29.075Z,30.42
2022-08-08T11:16:07.456Z,30.74
2022-08-08T11:18:51.879Z,30.99
2022-08-08T11:21:35.349Z,31.44
2022-08-08T11:24:06.608Z,31.44
2022-08-08T11:26:56.926Z,31.94
2022-08-08T11:29:29.433Z,31.79
2022-08-08T11:32:15.735Z,32.15
2022-08-08T11:35:23.428Z,32.12
2022-08-08T11:38:39.340Z,32.13
2022-08-08T11:40:51.717Z,32.30
2022-08-08T11:43:39.346Z,32.47
2022-08-08T11:46:17.525Z,32.86
2022-08-08T11:49:17.274Z,33.07
2022-08-08T11:51:54.236Z,32.75
2022-08-08T11:54:46.371Z,32.93
2022-08-08T11:57:30.201Z,33.25
2022-08-08T12:00:15.946Z,33.78
2022-08-08T12:02:54.722Z,34.02
2022-08-08T12:05:42.378Z,33.79
2022-08-08T12:08:11.387Z,33.94
2022-08-08T12:10:51.581Z,33.51
2022-08-08T12:13:37.652Z,32.97
2022-08-08T12:16:20.873Z,32.82
2022-08-08T12:19:01.243Z,32.86
2022-08-08T12:21:59.440Z,32.83
2022-08-08T12:24:48.448Z,33.57
2022-08-08T12:27:48.046Z,34.02
2022-08-08T12:30:15.966Z,34.23
2022-08-08T12:32:49.603Z,34.32
2022-08-08T12:35:22.996Z,34.03
2022-08-08T12:38:08.840Z,33.36
2022-08-08T12:40:57.008Z,33.46
2022-08-08T12:43:43.532Z,33.76
2022-08-08T12:46:25.402Z,34.09
2022-08-08T12:51:58.363Z,34.13
2022-08-08T12:54:38.470Z,34.48
2022-08-08T12:57:26.095Z,34.66
2022-08-08T13:00:05.932Z,34.63
2022-08-08T13:02:52.503Z,34.91
2022-08-08T13:05:26.351Z,35.07
2022-08-08T13:08:33.439Z,35.24
2022-08-08T13:12:19.883Z,35.56
2022-08-08T13:14:53.262Z,35.37
2022-08-08T13:18:08.378Z,35.26
2022-08-08T13:20:20.991Z,35.66
2022-08-08T13:22:55.944Z,35.86
2022-08-08T13:25:36.026Z,35.81
2022-08-08T13:28:03.243Z,35.58
2022-08-08T13:30:31.312Z,35.27
2022-08-08T13:33:02.329Z,35.11
2022-08-08T13:35:38.571Z,35.44
2022-08-08T13:38:21.251Z,35.83
2022-08-08T13:40:56.858Z,35.90
2022-08-08T13:43:26.127Z,36.05
2022-08-08T13:46:26.412Z,36.34
2022-08-08T13:49:12.327Z,35.91
2022-08-08T13:52:03.933Z,35.89
2022-08-08T13:54:49.606Z,35.31
2022-08-08T13:57:18.475Z,34.52
2022-08-08T14:00:26.248Z,33.72
2022-08-08T14:03:47.343Z,33.23
2022-08-08T14:06:32.338Z,33.24
2022-08-08T14:09:18.435Z,33.64
2022-08-08T14:12:00.781Z,34.18
2022-08-08T14:14:52.006Z,34.65
2022-08-08T14:17:36.230Z,35.20
2022-08-08T14:20:56.111Z,35.40
2022-08-08T14:23:20.977Z,35.66
2022-08-08T14:26:10.813Z,35.81
2022-08-08T14:28:39.776Z,35.47
2022-08-08T14:31:23.877Z,34.94
2022-08-08T14:34:00.202Z,34.41
2022-08-08T14:36:39.119Z,33.73
2022-08-08T14:39:11.631Z,33.45
2022-08-08T14:41:54.753Z,33.77
2022-08-08T14:44:33.523Z,34.37
2022-08-08T14:47:17.312Z,34.72
2022-08-08T14:50:06.203Z,35.26
2022-08-08T14:52:43.074Z,35.49
2022-08-08T14:55:12.084Z,35.54
2022-08-08T14:58:06.067Z,35.39
2022-08-08T15:00:34.465Z,34.99
2022-08-08T15:03:15.539Z,34.41
2022-08-08T15:05:53.422Z,33.71
2022-08-08T15:08:34.703Z,33.93
2022-08-08T15:11:08.948Z,34.24
2022-08-08T15:13:40.954Z,34.67
2022-08-08T15:16:24.301Z,35.01
2022-08-08T15:18:52.525Z,35.28
2022-08-08T15:21:21.465Z,35.27
2022-08-08T15:23:51.121Z,35.46
2022-08-08T15:26:20.619Z,35.38
2022-08-08T15:28:53.024Z,34.95
2022-08-08T15:31:56.339Z,34.36
2022-08-08T15:34:28.917Z,33.58
2022-08-08T15:37:02.100Z,32.83
2022-08-08T15:39:33.284Z,32.29
2022-08-08T15:42:41.402Z,32.08
2022-08-08T15:45:08.784Z,31.97
2022-08-08T15:47:38.281Z,31.73
2022-08-08T15:50:20.612Z,31.76
2022-08-08T15:52:58.951Z,32.24
2022-08-08T15:55:47.345Z,32.70
2022-08-08T15:58:28.221Z,32.97
2022-08-08T16:00:55.550Z,33.20
2022-08-08T16:03:23.652Z,33.31
2022-08-08T16:05:53.188Z,33.46
2022-08-08T16:09:02.228Z,33.44
2022-08-08T16:13:11.833Z,33.25
2022-08-08T16:14:32.587Z,33.05
2022-08-08T16:17:10.225Z,32.85
2022-08-08T16:19:56.932Z,32.82
2022-08-08T16:22:31.121Z,32.66
2022-08-08T16:25:05.733Z,32.23
2022-08-08T16:27:33.921Z,31.91
2022-08-08T16:30:10.539Z,31.83
2022-08-08T16:33:12.142Z,31.82
2022-08-08T16:35:40.297Z,31.52
2022-08-08T16:38:31.835Z,31.42
2022-08-08T16:41:00.277Z,31.19
2022-08-08T16:43:48.869Z,30.98
2022-08-08T16:46:36.966Z,30.40
2022-08-08T16:49:12.059Z,30.07
2022-08-08T16:54:59.759Z,29.82
2022-08-08T16:55:03.432Z,29.61
2022-08-08T16:58:13.410Z,29.37
2022-08-08T17:00:26.465Z,29.17
2022-08-08T17:03:10.955Z,28.94
2022-08-08T17:05:45.241Z,28.83
2022-08-08T17:08:13.953Z,28.59
2022-08-08T17:10:53.523Z,28.40
2022-08-08T17:13:50.183Z,28.24
2022-08-08T17:16:30.194Z,28.02
2022-08-08T17:19:00.697Z,27.96
2022-08-08T17:21:41.588Z,27.63
2022-08-08T17:24:28.070Z,27.50
2022-08-08T17:27:01.032Z,27.39
2022-08-08T17:29:33.463Z,27.31
2022-08-08T17:32:04.529Z,27.18
2022-08-08T17:34:59.798Z,27.00
2022-08-08T17:37:32.650Z,26.84
2022-08-08T17:40:10.451Z,26.71
2022-08-08T17:42:47.422Z,26.63
2022-08-08T17:45:22.451Z,26.38
2022-08-08T17:47:54.045Z,26.41
2022-08-08T17:50:27.759Z,26.30
2022-08-08T17:52:57.463Z,26.25
2022-08-08T17:56:04.874Z,26.05
2022-08-08T17:58:16.034Z,25.91
2022-08-08T18:00:47.561Z,25.84
2022-08-08T18:03:23.589Z,25.74
2022-08-08T18:06:03.058Z,25.61
2022-08-08T18:09:24.900Z,25.40
2022-08-08T18:12:04.171Z,25.23
2022-08-08T18:14:40.845Z,25.06
2022-08-08T18:17:17.382Z,24.89
2022-08-08T18:20:43.081Z,24.76
2022-08-08T18:22:50.731Z,24.60
2022-08-08T18:25:20.770Z,24.47
2022-08-08T18:27:49.761Z,24.35
2022-08-08T18:30:17.487Z,24.16
2022-08-08T18:32:45.391Z,24.08
2022-08-08T18:35:19.141Z,23.92
2022-08-08T18:37:48.513Z,23.57
2022-08-08T18:40:16.370Z,23.33
2022-08-08T18:42:50.426Z,23.03
2022-08-08T18:46:00.970Z,22.77
2022-08-08T18:48:07.424Z,22.63
2022-08-08T18:50:39.492Z,22.43
2022-08-08T18:53:17.444Z,22.22
2022-08-08T18:55:47.707Z,22.00
2022-08-08T18:58:18.386Z,21.65
2022-08-08T19:00:52.355Z,21.65
2022-08-08T19:03:23.053Z,21.25
2022-08-08T19:05:52.751Z,21.19
2022-08-08T19:08:24.891Z,21.12
2022-08-08T19:10:59.064Z,20.80
2022-08-08T19:13:53.417Z,20.93
2022-08-08T19:16:28.498Z,20.79
2022-08-08T19:19:02.308Z,20.07
2022-08-08T19:21:48.444Z,20.27
2022-08-08T19:24:42.740Z,20.14
2022-08-08T19:27:07.164Z,20.32
2022-08-08T19:29:42.390Z,20.08
2022-08-08T19:32:19.449Z,20.04
2022-08-08T19:34:55.190Z,19.97
2022-08-08T19:37:43.816Z,19.70
2022-08-08T19:40:22.188Z,19.08
2022-08-08T19:42:58.552Z,18.74
2022-08-08T19:45:58.390Z,18.51
2022-08-08T19:48:29.068Z,18.63
2022-08-08T19:51:01.116Z,19.01
2022-08-08T19:53:51.149Z,18.87
2022-08-08T19:56:25.966Z,18.71
2022-08-08T19:59:13.630Z,18.73
2022-08-08T20:02:01.595Z,18.66
2022-08-08T20:04:30.041Z,18.49
2022-08-08T20:07:05.337Z,18.51
2022-08-08T20:09:56.408Z,18.42
2022-08-08T20:12:35.576Z,18.43
2022-08-08T20:15:16.716Z,18.34
2022-08-08T20:17:48.011Z,18.33
2022-08-08T20:20:26.604Z,18.22
2022-08-08T20:23:12.410Z,18.11
2022-08-08T20:25:45.825Z,18.12
2022-08-08T20:28:22.477Z,18.09
2022-08-08T20:30:59.849Z,17.98
2022-08-08T20:34:27.307Z,17.75
2022-08-08T20:36:29.723Z,17.44
2022-08-08T20:38:58.914Z,17.13
2022-08-08T20:41:33.824Z,17.00
2022-08-08T20:44:02.208Z,17.14
2022-08-08T20:46:49.201Z,17.28
2022-08-08T20:49:20.369Z,17.13
2022-08-08T20:51:52.076Z,16.91
2022-08-08T20:54:26.336Z,16.83
2022-08-08T20:57:43.980Z,16.50
2022-08-08T21:00:16.116Z,16.71
2022-08-08T21:02:48.643Z,16.69
2022-08-08T21:05:23.173Z,16.59
2022-08-08T21:08:36.586Z,16.58
2022-08-08T21:11:01.106Z,16.45
2022-08-08T21:13:41.025Z,16.58
2022-08-08T21:16:20.790Z,16.56
2022-08-08T21:18:57.895Z,16.62
2022-08-08T21:21:41.163Z,16.53
2022-08-08T21:24:20.937Z,16.48
2022-08-08T21:26:59.398Z,16.39
2022-08-08T21:30:05.299Z,16.35
2022-08-08T21:32:24.885Z,16.34
2022-08-08T21:36:14.585Z,16.29
2022-08-08T21:38:04.163Z,16.36
2022-08-08T21:40:35.775Z,16.29
2022-08-08T21:43:10.164Z,16.25
2022-08-08T21:45:44.393Z,16.20
2022-08-08T21:48:41.268Z,16.18
2022-08-08T21:51:13.212Z,16.02
2022-08-08T21:54:22.737Z,15.81
2022-08-08T21:56:42.078Z,15.75
2022-08-08T21:59:17.034Z,15.76
2022-08-08T22:02:10.859Z,15.54
2022-08-08T22:04:59.534Z,15.46
2022-08-08T22:07:40.697Z,15.31
2022-08-08T22:10:32.330Z,15.57
2022-08-08T22:13:16.993Z,15.55
2022-08-08T22:16:01.286Z,15.50
2022-08-08T22:18:40.394Z,15.21
2022-08-08T22:21:15.463Z,15.29
2022-08-08T22:23:51.387Z,15.30
2022-08-08T22:26:30.981Z,15.17
2022-08-08T22:29:56.485Z,15.22
2022-08-08T22:32:01.620Z,15.06
2022-08-08T22:34:41.546Z,14.75
2022-08-08T22:37:27.670Z,14.92
2022-08-08T22:40:12.001Z,14.94
2022-08-08T22:42:50.878Z,14.96
2022-08-08T22:45:19.831Z,14.96
2022-08-08T22:47:51.880Z,15.02
2022-08-08T22:50:38.570Z,15.07
2022-08-08T22:54:29.354Z,15.02
2022-08-08T22:56:04.941Z,14.91
2022-08-08T22:58:40.310Z,14.81
2022-08-08T23:01:30.265Z,14.80
2022-08-08T23:03:58.777Z,14.77
2022-08-08T23:06:33.273Z,14.71
2022-08-08T23:09:30.667Z,14.71
2022-08-08T23:12:28.731Z,14.72
2022-08-08T23:14:53.292Z,14.70
2022-08-08T23:17:24.235Z,14.69
2022-08-08T23:19:59.037Z,14.62
2022-08-08T23:22:26.752Z,14.47
2022-08-08T23:24:57.367Z,14.45
2022-08-08T23:27:38.212Z,14.42
2022-08-08T23:30:14.594Z,14.52
2022-08-08T23:32:44.123Z,14.59
2022-08-08T23:35:18.671Z,14.59
2022-08-08T23:38:03.269Z,14.42
2022-08-08T23:40:31.927Z,14.36
2022-08-08T23:43:02.697Z,14.39
2022-08-08T23:49:04.328Z,14.48
2022-08-08T23:49:04.765Z,14.43
2022-08-08T23:51:12.650Z,14.47
2022-08-08T23:54:05.890Z,14.46
2022-08-08T23:56:58.862Z,14.47
2022-08-08T23:59:32.076Z,14.46
